No particular awareness of the weather is required.    There are no Weather-warnings


Meteo18 Weather Cam more information Meteo18 Weather Cam


Thunder radar more information blitzortung!


Rain radar more information rain snow radar


Visit our other weather sites:

Template documentation
and downloads

And another site



Weather Underground History page Text

Daily Summary for September 22, 2017 Units:  Both    English   Metric
« Previous Day
Next Day »
Daily Weekly Monthly Yearly Custom
  High: Low: Average:
Temperature: 70.7 °F /  21.5 °C 46.6 °F /  8.1 °C 58.6 °F /  14.8 °C
Dew Point: 55.8 °F /  13.2 °C 45.1 °F /  7.3 °C 51.4 °F /  10.8 °C
Humidity: 96 % 55 % 79 %
Wind Speed: 6 mph /  9.7 km/h - 0.7 mph /  1.2 km/h
Wind Gust: 9 mph /  14.5 km/h - -
Wind:- - SW
Pressure: 30.3 in /  1024.3 hPa 30.1 in /  1019.9 hPa -
Precipitation: 0 in /  0.0 mm    
Historical Graphs
 
 
Tabular Data for September 22, 2017
Time Temperature Dew Point Pressure Wind Wind Speed Wind Gust Humidity Rainfall Rate (Hourly)
00:02 52.3 °F /  11.3 °C 49.5 °F /  9.7 °C 30.1 in /  1019.9 hPa Calm     90 % 0 in /  0.0 mm
00:12 52.3 °F /  11.3 °C 49.5 °F /  9.7 °C 30.1 in /  1019.9 hPa Calm     90 % 0 in /  0.0 mm
00:17 52.2 °F /  11.2 °C 49.3 °F /  9.6 °C 30.1 in /  1019.9 hPa Calm     90 % 0 in /  0.0 mm
00:22 51.8 °F /  11.0 °C 48.9 °F /  9.4 °C 30.1 in /  1019.9 hPa Calm     90 % 0 in /  0.0 mm
00:27 51.4 °F /  10.8 °C 48.6 °F /  9.2 °C 30.1 in /  1019.9 hPa Calm     90 % 0 in /  0.0 mm
00:37 51.3 °F /  10.7 °C 48.7 °F /  9.3 °C 30.1 in /  1019.9 hPa Calm     91 % 0 in /  0.0 mm
00:42 51.4 °F /  10.8 °C 49.3 °F /  9.6 °C 30.1 in /  1019.9 hPa Calm     92 % 0 in /  0.0 mm
00:52 51.3 °F /  10.7 °C 48.7 °F /  9.3 °C 30.1 in /  1019.9 hPa Calm     91 % 0 in /  0.0 mm
01:02 50.9 °F /  10.5 °C 48.7 °F /  9.3 °C 30.1 in /  1020.2 hPa Calm     92 % 0 in /  0.0 mm
01:12 50.7 °F /  10.4 °C 48.2 °F /  9.0 °C 30.1 in /  1020.2 hPa Calm     91 % 0 in /  0.0 mm
01:17 50.5 °F /  10.3 °C 48 °F /  8.9 °C 30.1 in /  1020.2 hPa Calm     91 % 0 in /  0.0 mm
01:22 50.7 °F /  10.4 °C 48.6 °F /  9.2 °C 30.1 in /  1020.2 hPa Calm     92 % 0 in /  0.0 mm
01:27 51.1 °F /  10.6 °C 48.9 °F /  9.4 °C 30.1 in /  1020.2 hPa Calm     92 % 0 in /  0.0 mm
01:32 51.3 °F /  10.7 °C 49.1 °F /  9.5 °C 30.1 in /  1020.2 hPa Calm     92 % 0 in /  0.0 mm
01:42 51.6 °F /  10.9 °C 49.1 °F /  9.5 °C 30.1 in /  1020.2 hPa Calm     91 % 0 in /  0.0 mm
01:47 51.3 °F /  10.7 °C 48.4 °F /  9.1 °C 30.1 in /  1020.2 hPa Calm     90 % 0 in /  0.0 mm
01:52 51.1 °F /  10.6 °C 48.6 °F /  9.2 °C 30.1 in /  1020.2 hPa Calm     91 % 0 in /  0.0 mm
02:02 50.4 °F /  10.2 °C 47.8 °F /  8.8 °C 30.1 in /  1020.2 hPa Calm     91 % 0 in /  0.0 mm
02:12 50 °F /  10.0 °C 47.8 °F /  8.8 °C 30.1 in /  1020.2 hPa Calm     92 % 0 in /  0.0 mm
02:17 49.8 °F /  9.9 °C 47.7 °F /  8.7 °C 30.1 in /  1020.5 hPa Calm     92 % 0 in /  0.0 mm
02:22 49.6 °F /  9.8 °C 47.5 °F /  8.6 °C 30.1 in /  1020.2 hPa Calm     92 % 0 in /  0.0 mm
02:32 49.8 °F /  9.9 °C 47.8 °F /  8.8 °C 30.1 in /  1020.2 hPa Calm     93 % 0 in /  0.0 mm
02:42 49.8 °F /  9.9 °C 47.8 °F /  8.8 °C 30.1 in /  1020.5 hPa Calm     93 % 0 in /  0.0 mm
02:47 49.6 °F /  9.8 °C 47.7 °F /  8.7 °C 30.1 in /  1020.5 hPa Calm     93 % 0 in /  0.0 mm
02:52 49.6 °F /  9.8 °C 47.5 °F /  8.6 °C 30.1 in /  1020.5 hPa Calm     92 % 0 in /  0.0 mm
03:02 49.5 °F /  9.7 °C 47.5 °F /  8.6 °C 30.1 in /  1020.5 hPa Calm     93 % 0 in /  0.0 mm
03:07 49.5 °F /  9.7 °C 47.5 °F /  8.6 °C 30.1 in /  1020.2 hPa Calm     93 % 0 in /  0.0 mm
03:12 49.5 °F /  9.7 °C 47.5 °F /  8.6 °C 30.1 in /  1020.2 hPa Calm     93 % 0 in /  0.0 mm
03:17 49.3 °F /  9.6 °C 47.3 °F /  8.5 °C 30.1 in /  1020.2 hPa Calm     93 % 0 in /  0.0 mm
03:22 49.3 °F /  9.6 °C 47.1 °F /  8.4 °C 30.1 in /  1020.2 hPa Calm     92 % 0 in /  0.0 mm
03:32 48.9 °F /  9.4 °C 46.8 °F /  8.2 °C 30.1 in /  1020.2 hPa Calm     92 % 0 in /  0.0 mm
03:42 48.7 °F /  9.3 °C 46.8 °F /  8.2 °C 30.1 in /  1020.2 hPa Calm     93 % 0 in /  0.0 mm
03:47 48.9 °F /  9.4 °C 47.3 °F /  8.5 °C 30.1 in /  1020.2 hPa Calm     94 % 0 in /  0.0 mm
03:52 48.7 °F /  9.3 °C 46.8 °F /  8.2 °C 30.1 in /  1020.5 hPa Calm     93 % 0 in /  0.0 mm
04:02 48.9 °F /  9.4 °C 47.3 °F /  8.5 °C 30.1 in /  1020.5 hPa Calm     94 % 0 in /  0.0 mm
04:12 48.4 °F /  9.1 °C 46.4 °F /  8.0 °C 30.1 in /  1020.5 hPa Calm     93 % 0 in /  0.0 mm
04:17 48.4 °F /  9.1 °C 46.8 °F /  8.2 °C 30.1 in /  1020.2 hPa Calm     94 % 0 in /  0.0 mm
04:22 48.6 °F /  9.2 °C 46.9 °F /  8.3 °C 30.1 in /  1020.5 hPa Calm     94 % 0 in /  0.0 mm
04:27 48.6 °F /  9.2 °C 46.9 °F /  8.3 °C 30.1 in /  1020.2 hPa Calm     94 % 0 in /  0.0 mm
04:32 48.6 °F /  9.2 °C 46.9 °F /  8.3 °C 30.1 in /  1020.5 hPa Calm     94 % 0 in /  0.0 mm
04:42 48.6 °F /  9.2 °C 46.9 °F /  8.3 °C 30.1 in /  1020.5 hPa Calm     94 % 0 in /  0.0 mm
04:47 48.6 °F /  9.2 °C 46.9 °F /  8.3 °C 30.1 in /  1020.5 hPa Calm     94 % 0 in /  0.0 mm
04:52 48.4 °F /  9.1 °C 46.8 °F /  8.2 °C 30.1 in /  1020.5 hPa Calm     94 % 0 in /  0.0 mm
04:57 48.4 °F /  9.1 °C 46.8 °F /  8.2 °C 30.1 in /  1020.5 hPa Calm     94 % 0 in /  0.0 mm
05:02 48.4 °F /  9.1 °C 46.8 °F /  8.2 °C 30.1 in /  1020.5 hPa Calm     94 % 0 in /  0.0 mm
05:12 48 °F /  8.9 °C 46.4 °F /  8.0 °C 30.1 in /  1020.5 hPa Calm     94 % 0 in /  0.0 mm
05:17 48 °F /  8.9 °C 46.4 °F /  8.0 °C 30.1 in /  1020.5 hPa Calm     94 % 0 in /  0.0 mm
05:22 48 °F /  8.9 °C 46.4 °F /  8.0 °C 30.1 in /  1020.5 hPa Calm     94 % 0 in /  0.0 mm
05:32 47.8 °F /  8.8 °C 46.2 °F /  7.9 °C 30.1 in /  1020.5 hPa Calm     94 % 0 in /  0.0 mm
05:42 47.7 °F /  8.7 °C 46 °F /  7.8 °C 30.1 in /  1020.5 hPa Calm     94 % 0 in /  0.0 mm
05:52 47.3 °F /  8.5 °C 45.7 °F /  7.6 °C 30.1 in /  1020.5 hPa Calm     94 % 0 in /  0.0 mm
06:02 47.1 °F /  8.4 °C 45.7 °F /  7.6 °C 30.1 in /  1020.5 hPa Calm     95 % 0 in /  0.0 mm
06:12 47.3 °F /  8.5 °C 45.9 °F /  7.7 °C 30.1 in /  1020.5 hPa Calm     95 % 0 in /  0.0 mm
06:17 47.3 °F /  8.5 °C 45.9 °F /  7.7 °C 30.1 in /  1020.5 hPa Calm     95 % 0 in /  0.0 mm
06:22 47.3 °F /  8.5 °C 45.9 °F /  7.7 °C 30.1 in /  1020.5 hPa Calm     95 % 0 in /  0.0 mm
06:32 47.3 °F /  8.5 °C 45.9 °F /  7.7 °C 30.2 in /  1020.9 hPa Calm     95 % 0 in /  0.0 mm
06:37 47.1 °F /  8.4 °C 45.7 °F /  7.6 °C 30.1 in /  1020.5 hPa Calm     95 % 0 in /  0.0 mm
06:42 47.1 °F /  8.4 °C 45.7 °F /  7.6 °C 30.1 in /  1020.5 hPa Calm     95 % 0 in /  0.0 mm
06:52 47.1 °F /  8.4 °C 45.7 °F /  7.6 °C 30.1 in /  1020.5 hPa Calm     95 % 0 in /  0.0 mm
06:57 47.1 °F /  8.4 °C 45.7 °F /  7.6 °C 30.1 in /  1020.5 hPa Calm     95 % 0 in /  0.0 mm
07:02 46.9 °F /  8.3 °C 45.5 °F /  7.5 °C 30.2 in /  1020.9 hPa Calm     95 % 0 in /  0.0 mm
07:12 46.6 °F /  8.1 °C 45.1 °F /  7.3 °C 30.2 in /  1020.9 hPa Calm     95 % 0 in /  0.0 mm
07:17 46.6 °F /  8.1 °C 45.1 °F /  7.3 °C 30.2 in /  1020.9 hPa Calm     95 % 0 in /  0.0 mm
07:22 46.6 °F /  8.1 °C 45.1 °F /  7.3 °C 30.2 in /  1020.9 hPa Calm     95 % 0 in /  0.0 mm
07:32 46.8 °F /  8.2 °C 45.7 °F /  7.6 °C 30.2 in /  1021.2 hPa Calm     96 % 0 in /  0.0 mm
07:37 46.8 °F /  8.2 °C 45.7 °F /  7.6 °C 30.2 in /  1021.2 hPa Calm     96 % 0 in /  0.0 mm
07:42 46.8 °F /  8.2 °C 45.7 °F /  7.6 °C 30.2 in /  1021.2 hPa Calm     96 % 0 in /  0.0 mm
07:47 46.8 °F /  8.2 °C 45.7 °F /  7.6 °C 30.2 in /  1021.2 hPa Calm     96 % 0 in /  0.0 mm
07:52 46.6 °F /  8.1 °C 45.1 °F /  7.3 °C 30.2 in /  1021.2 hPa Calm     95 % 0 in /  0.0 mm
08:02 46.9 °F /  8.3 °C 45.9 °F /  7.7 °C 30.2 in /  1021.2 hPa Calm     96 % 0 in /  0.0 mm
08:12 46.9 °F /  8.3 °C 45.5 °F /  7.5 °C 30.2 in /  1021.2 hPa Calm     95 % 0 in /  0.0 mm
08:17 47.1 °F /  8.4 °C 45.7 °F /  7.6 °C 30.2 in /  1021.6 hPa Calm     95 % 0 in /  0.0 mm
08:22 47.5 °F /  8.6 °C 46.4 °F /  8.0 °C 30.2 in /  1021.6 hPa Calm     96 % 0 in /  0.0 mm
08:32 48.4 °F /  9.1 °C 47.3 °F /  8.5 °C 30.2 in /  1021.6 hPa Calm     96 % 0 in /  0.0 mm
08:42 50.2 °F /  10.1 °C 49.1 °F /  9.5 °C 30.2 in /  1021.6 hPa Calm     96 % 0 in /  0.0 mm
08:52 50.5 °F /  10.3 °C 49.1 °F /  9.5 °C 30.2 in /  1021.6 hPa Calm     95 % 0 in /  0.0 mm
09:02 52 °F /  11.1 °C 50.4 °F /  10.2 °C 30.2 in /  1021.6 hPa Calm     94 % 0 in /  0.0 mm
09:12 52.7 °F /  11.5 °C 50.7 °F /  10.4 °C 30.2 in /  1021.6 hPa Calm     93 % 0 in /  0.0 mm
09:17 54 °F /  12.2 °C 52.3 °F /  11.3 °C 30.2 in /  1021.6 hPa Calm     94 % 0 in /  0.0 mm
09:22 54.5 °F /  12.5 °C 52 °F /  11.1 °C 30.2 in /  1021.6 hPa Calm     91 % 0 in /  0.0 mm
09:32 56.5 °F /  13.6 °C 53.2 °F /  11.8 °C 30.2 in /  1021.6 hPa Calm     89 % 0 in /  0.0 mm
09:37 57.7 °F /  14.3 °C 54 °F /  12.2 °C 30.2 in /  1021.6 hPa Calm     87 % 0 in /  0.0 mm
09:42 58.8 °F /  14.9 °C 53.4 °F /  11.9 °C 30.2 in /  1021.6 hPa Calm     82 % 0 in /  0.0 mm
09:47 59.4 °F /  15.2 °C 53.2 °F /  11.8 °C 30.2 in /  1021.9 hPa Calm     80 % 0 in /  0.0 mm
09:52 59.7 °F /  15.4 °C 52.9 °F /  11.6 °C 30.2 in /  1021.9 hPa Calm     78 % 0 in /  0.0 mm
10:02 59.4 °F /  15.2 °C 52.9 °F /  11.6 °C 30.2 in /  1021.9 hPa Calm     79 % 0 in /  0.0 mm
10:07 59 °F /  15.0 °C 52.9 °F /  11.6 °C 30.2 in /  1021.9 hPa Calm     80 % 0 in /  0.0 mm
10:12 60.3 °F /  15.7 °C 53.8 °F /  12.1 °C 30.2 in /  1021.9 hPa Calm     79 % 0 in /  0.0 mm
10:17 60.1 °F /  15.6 °C 53.2 °F /  11.8 °C 30.2 in /  1021.9 hPa Calm     78 % 0 in /  0.0 mm
10:22 59.9 °F /  15.5 °C 53.1 °F /  11.7 °C 30.2 in /  1021.9 hPa Calm     78 % 0 in /  0.0 mm
10:32 59.2 °F /  15.1 °C 53.1 °F /  11.7 °C 30.2 in /  1021.9 hPa Calm     80 % 0 in /  0.0 mm
10:37 59.4 °F /  15.2 °C 53.6 °F /  12.0 °C 30.2 in /  1021.9 hPa Calm     81 % 0 in /  0.0 mm
10:42 59.5 °F /  15.3 °C 53.4 °F /  11.9 °C 30.2 in /  1021.9 hPa Calm     80 % 0 in /  0.0 mm
10:52 60.1 °F /  15.6 °C 53.6 °F /  12.0 °C 30.2 in /  1021.9 hPa Calm     79 % 0 in /  0.0 mm
11:02 61.9 °F /  16.6 °C 54.9 °F /  12.7 °C 30.2 in /  1021.9 hPa Calm     78 % 0 in /  0.0 mm
11:07 62.2 °F /  16.8 °C 54.5 °F /  12.5 °C 30.2 in /  1021.9 hPa Calm     76 % 0 in /  0.0 mm
11:12 62.8 °F /  17.1 °C 54.3 °F /  12.4 °C 30.2 in /  1022.2 hPa Calm     74 % 0 in /  0.0 mm
11:17 62.8 °F /  17.1 °C 54.3 °F /  12.4 °C 30.2 in /  1022.2 hPa Calm     74 % 0 in /  0.0 mm
11:22 63.3 °F /  17.4 °C 54.5 °F /  12.5 °C 30.2 in /  1022.2 hPa Calm     73 % 0 in /  0.0 mm
11:32 64.8 °F /  18.2 °C 54.7 °F /  12.6 °C 30.2 in /  1022.2 hPa Calm     70 % 0 in /  0.0 mm
11:42 65.1 °F /  18.4 °C 54.3 °F /  12.4 °C 30.2 in /  1022.2 hPa Calm     68 % 0 in /  0.0 mm
11:47 65.7 °F /  18.7 °C 54.3 °F /  12.4 °C 30.2 in /  1022.2 hPa Calm     67 % 0 in /  0.0 mm
11:52 66 °F /  18.9 °C 54 °F /  12.2 °C 30.2 in /  1022.2 hPa Calm     65 % 0 in /  0.0 mm
12:02 66.4 °F /  19.1 °C 54.3 °F /  12.4 °C 30.2 in /  1022.2 hPa Calm     65 % 0 in /  0.0 mm
12:07 66.4 °F /  19.1 °C 53.8 °F /  12.1 °C 30.2 in /  1022.2 hPa Calm     64 % 0 in /  0.0 mm
12:17 67.5 °F /  19.7 °C 54.5 °F /  12.5 °C 30.2 in /  1022.2 hPa Calm     63 % 0 in /  0.0 mm
12:22 67.5 °F /  19.7 °C 53.6 °F /  12.0 °C 30.2 in /  1022.2 hPa Calm     61 % 0 in /  0.0 mm
12:27 67.3 °F /  19.6 °C 53.4 °F /  11.9 °C 30.2 in /  1022.2 hPa Calm     61 % 0 in /  0.0 mm
12:32 67.5 °F /  19.7 °C 53.6 °F /  12.0 °C 30.2 in /  1022.2 hPa Calm     61 % 0 in /  0.0 mm
12:42 67.3 °F /  19.6 °C 53.4 °F /  11.9 °C 30.2 in /  1022.2 hPa Calm   3 mph /  4.8 km/h 61 % 0 in /  0.0 mm
12:52 67.8 °F /  19.9 °C 54 °F /  12.2 °C 30.2 in /  1022.2 hPa West 1 mph /  1.6 km/h 5 mph /  8.0 km/h 61 % 0 in /  0.0 mm
13:02 68 °F /  20.0 °C 54.5 °F /  12.5 °C 30.2 in /  1022.2 hPa WNW 2 mph /  3.2 km/h 5 mph /  8.0 km/h 62 % 0 in /  0.0 mm
13:12 68.5 °F /  20.3 °C 55 °F /  12.8 °C 30.2 in /  1022.2 hPa WNW 3 mph /  4.8 km/h 3 mph /  4.8 km/h 62 % 0 in /  0.0 mm
13:17 68.5 °F /  20.3 °C 55 °F /  12.8 °C 30.2 in /  1022.2 hPa SSW 1 mph /  1.6 km/h 5 mph /  8.0 km/h 62 % 0 in /  0.0 mm
13:22 68.5 °F /  20.3 °C 54.5 °F /  12.5 °C 30.2 in /  1022.2 hPa WNW 3 mph /  4.8 km/h 5 mph /  8.0 km/h 61 % 0 in /  0.0 mm
13:32 68.5 °F /  20.3 °C 55.4 °F /  13.0 °C 30.2 in /  1022.2 hPa Calm   5 mph /  8.0 km/h 63 % 0 in /  0.0 mm
13:42 69.4 °F /  20.8 °C 54.9 °F /  12.7 °C 30.2 in /  1022.2 hPa NE 1 mph /  1.6 km/h 5 mph /  8.0 km/h 60 % 0 in /  0.0 mm
13:52 70.2 °F /  21.2 °C 55.6 °F /  13.1 °C 30.2 in /  1022.2 hPa SW 2 mph /  3.2 km/h 4 mph /  6.4 km/h 60 % 0 in /  0.0 mm
13:57 70.2 °F /  21.2 °C 55.2 °F /  12.9 °C 30.2 in /  1022.2 hPa SW 3 mph /  4.8 km/h 5 mph /  8.0 km/h 59 % 0 in /  0.0 mm
14:02 70.7 °F /  21.5 °C 55.2 °F /  12.9 °C 30.2 in /  1022.2 hPa SSW 1 mph /  1.6 km/h 5 mph /  8.0 km/h 58 % 0 in /  0.0 mm
14:12 69.3 °F /  20.7 °C 54.3 °F /  12.4 °C 30.2 in /  1022.2 hPa West 2 mph /  3.2 km/h 5 mph /  8.0 km/h 59 % 0 in /  0.0 mm
14:22 68.5 °F /  20.3 °C 54.5 °F /  12.5 °C 30.2 in /  1022.2 hPa Calm   5 mph /  8.0 km/h 61 % 0 in /  0.0 mm
14:27 68.5 °F /  20.3 °C 54.5 °F /  12.5 °C 30.2 in /  1022.2 hPa Calm   5 mph /  8.0 km/h 61 % 0 in /  0.0 mm
14:32 68.5 °F /  20.3 °C 54.5 °F /  12.5 °C 30.2 in /  1022.2 hPa NNW 1 mph /  1.6 km/h 5 mph /  8.0 km/h 61 % 0 in /  0.0 mm
14:42 68.4 °F /  20.2 °C 54.3 °F /  12.4 °C 30.2 in /  1022.2 hPa Calm   4 mph /  6.4 km/h 61 % 0 in /  0.0 mm
14:47 68.4 °F /  20.2 °C 54 °F /  12.2 °C 30.2 in /  1022.2 hPa Calm   5 mph /  8.0 km/h 60 % 0 in /  0.0 mm
14:52 68.5 °F /  20.3 °C 54.1 °F /  12.3 °C 30.2 in /  1022.2 hPa NE 1 mph /  1.6 km/h 5 mph /  8.0 km/h 60 % 0 in /  0.0 mm
14:57 68.5 °F /  20.3 °C 53.2 °F /  11.8 °C 30.2 in /  1022.2 hPa North 2 mph /  3.2 km/h 2 mph /  3.2 km/h 58 % 0 in /  0.0 mm
15:02 68.5 °F /  20.3 °C 53.2 °F /  11.8 °C 30.2 in /  1022.2 hPa Calm   2 mph /  3.2 km/h 58 % 0 in /  0.0 mm
15:12 68.7 °F /  20.4 °C 52.3 °F /  11.3 °C 30.2 in /  1022.2 hPa Calm   3 mph /  4.8 km/h 56 % 0 in /  0.0 mm
15:17 68.9 °F /  20.5 °C 52.5 °F /  11.4 °C 30.2 in /  1022.2 hPa NNE 2 mph /  3.2 km/h 3 mph /  4.8 km/h 56 % 0 in /  0.0 mm
15:22 69.1 °F /  20.6 °C 53.6 °F /  12.0 °C 30.2 in /  1022.2 hPa North 1 mph /  1.6 km/h 3 mph /  4.8 km/h 58 % 0 in /  0.0 mm
15:32 69.1 °F /  20.6 °C 54.1 °F /  12.3 °C 30.2 in /  1022.2 hPa WNW 1 mph /  1.6 km/h 3 mph /  4.8 km/h 59 % 0 in /  0.0 mm
15:42 69.1 °F /  20.6 °C 54.1 °F /  12.3 °C 30.2 in /  1022.2 hPa NNE 1 mph /  1.6 km/h 6 mph /  9.7 km/h 59 % 0 in /  0.0 mm
15:47 69.8 °F /  21.0 °C 53.4 °F /  11.9 °C 30.2 in /  1022.2 hPa NNW 1 mph /  1.6 km/h 6 mph /  9.7 km/h 56 % 0 in /  0.0 mm
15:52 70.2 °F /  21.2 °C 53.2 °F /  11.8 °C 30.2 in /  1022.2 hPa North 1 mph /  1.6 km/h 6 mph /  9.7 km/h 55 % 0 in /  0.0 mm
16:02 69.4 °F /  20.8 °C 53.1 °F /  11.7 °C 30.2 in /  1022.2 hPa NNW 2 mph /  3.2 km/h 5 mph /  8.0 km/h 56 % 0 in /  0.0 mm
16:12 69.3 °F /  20.7 °C 53.4 °F /  11.9 °C 30.2 in /  1022.2 hPa NW 2 mph /  3.2 km/h 6 mph /  9.7 km/h 57 % 0 in /  0.0 mm
16:17 69.3 °F /  20.7 °C 54.3 °F /  12.4 °C 30.2 in /  1022.2 hPa NNW 1 mph /  1.6 km/h 5 mph /  8.0 km/h 59 % 0 in /  0.0 mm
16:22 69.4 °F /  20.8 °C 54 °F /  12.2 °C 30.2 in /  1022.2 hPa North 1 mph /  1.6 km/h 5 mph /  8.0 km/h 58 % 0 in /  0.0 mm
16:32 69.8 °F /  21.0 °C 54 °F /  12.2 °C 30.2 in /  1022.2 hPa NNW 6 mph /  9.7 km/h 6 mph /  9.7 km/h 57 % 0 in /  0.0 mm
16:42 70 °F /  21.1 °C 55 °F /  12.8 °C 30.2 in /  1022.2 hPa WNW 2 mph /  3.2 km/h 9 mph /  14.5 km/h 59 % 0 in /  0.0 mm
16:52 69.6 °F /  20.9 °C 53.2 °F /  11.8 °C 30.2 in /  1022.2 hPa WSW 1 mph /  1.6 km/h 9 mph /  14.5 km/h 56 % 0 in /  0.0 mm
17:02 70 °F /  21.1 °C 54 °F /  12.2 °C 30.2 in /  1022.2 hPa NW 2 mph /  3.2 km/h 7 mph /  11.3 km/h 57 % 0 in /  0.0 mm
17:12 70.3 °F /  21.3 °C 54 °F /  12.2 °C 30.2 in /  1022.2 hPa NW 2 mph /  3.2 km/h 7 mph /  11.3 km/h 56 % 0 in /  0.0 mm
17:17 70.3 °F /  21.3 °C 54.3 °F /  12.4 °C 30.2 in /  1022.2 hPa WNW 4 mph /  6.4 km/h 8 mph /  12.9 km/h 57 % 0 in /  0.0 mm
17:22 70.5 °F /  21.4 °C 53.6 °F /  12.0 °C 30.2 in /  1022.2 hPa WNW 2 mph /  3.2 km/h 8 mph /  12.9 km/h 55 % 0 in /  0.0 mm
17:27 70.7 °F /  21.5 °C 54.3 °F /  12.4 °C 30.2 in /  1022.2 hPa NW 3 mph /  4.8 km/h 8 mph /  12.9 km/h 56 % 0 in /  0.0 mm
17:32 70.3 °F /  21.3 °C 53.4 °F /  11.9 °C 30.2 in /  1022.2 hPa NW 3 mph /  4.8 km/h 8 mph /  12.9 km/h 55 % 0 in /  0.0 mm
17:37 70.3 °F /  21.3 °C 53.4 °F /  11.9 °C 30.2 in /  1021.9 hPa NW 3 mph /  4.8 km/h 8 mph /  12.9 km/h 55 % 0 in /  0.0 mm
17:47 69.6 °F /  20.9 °C 53.8 °F /  12.1 °C 30.2 in /  1022.2 hPa WNW 4 mph /  6.4 km/h 9 mph /  14.5 km/h 57 % 0 in /  0.0 mm
17:52 69.6 °F /  20.9 °C 54.1 °F /  12.3 °C 30.2 in /  1021.9 hPa NNW 1 mph /  1.6 km/h 9 mph /  14.5 km/h 58 % 0 in /  0.0 mm
17:57 70 °F /  21.1 °C 54 °F /  12.2 °C 30.2 in /  1022.2 hPa WNW 2 mph /  3.2 km/h 7 mph /  11.3 km/h 57 % 0 in /  0.0 mm
18:02 69.8 °F /  21.0 °C 54 °F /  12.2 °C 30.2 in /  1022.2 hPa WNW 2 mph /  3.2 km/h 7 mph /  11.3 km/h 57 % 0 in /  0.0 mm
18:12 69.8 °F /  21.0 °C 54.3 °F /  12.4 °C 30.2 in /  1022.2 hPa WNW 2 mph /  3.2 km/h 6 mph /  9.7 km/h 58 % 0 in /  0.0 mm
18:17 69.8 °F /  21.0 °C 54.9 °F /  12.7 °C 30.2 in /  1022.2 hPa WNW 1 mph /  1.6 km/h 6 mph /  9.7 km/h 59 % 0 in /  0.0 mm
18:22 69.6 °F /  20.9 °C 54.7 °F /  12.6 °C 30.2 in /  1022.2 hPa NNW 1 mph /  1.6 km/h 5 mph /  8.0 km/h 59 % 0 in /  0.0 mm
18:32 69.6 °F /  20.9 °C 54.1 °F /  12.3 °C 30.2 in /  1022.2 hPa Calm   5 mph /  8.0 km/h 58 % 0 in /  0.0 mm
18:37 69.6 °F /  20.9 °C 54.7 °F /  12.6 °C 30.2 in /  1022.2 hPa NNE 1 mph /  1.6 km/h 5 mph /  8.0 km/h 59 % 0 in /  0.0 mm
18:42 69.3 °F /  20.7 °C 54.9 °F /  12.7 °C 30.2 in /  1022.2 hPa NNE 2 mph /  3.2 km/h 5 mph /  8.0 km/h 60 % 0 in /  0.0 mm
18:52 68.5 °F /  20.3 °C 55 °F /  12.8 °C 30.2 in /  1022.2 hPa Calm   6 mph /  9.7 km/h 62 % 0 in /  0.0 mm
19:02 68.2 °F /  20.1 °C 55.6 °F /  13.1 °C 30.2 in /  1022.2 hPa NNW 5 mph /  8.0 km/h 8 mph /  12.9 km/h 64 % 0 in /  0.0 mm
19:12 67.8 °F /  19.9 °C 55.2 °F /  12.9 °C 30.2 in /  1022.2 hPa NE 4 mph /  6.4 km/h 8 mph /  12.9 km/h 64 % 0 in /  0.0 mm
19:17 67.6 °F /  19.8 °C 55.4 °F /  13.0 °C 30.2 in /  1022.2 hPa ENE 3 mph /  4.8 km/h 7 mph /  11.3 km/h 65 % 0 in /  0.0 mm
19:22 67.3 °F /  19.6 °C 55.6 °F /  13.1 °C 30.2 in /  1022.2 hPa NNE 3 mph /  4.8 km/h 7 mph /  11.3 km/h 66 % 0 in /  0.0 mm
19:32 66.7 °F /  19.3 °C 55.4 °F /  13.0 °C 30.2 in /  1022.6 hPa NW 2 mph /  3.2 km/h 6 mph /  9.7 km/h 67 % 0 in /  0.0 mm
19:37 66.2 °F /  19.0 °C 55.4 °F /  13.0 °C 30.2 in /  1022.6 hPa North 2 mph /  3.2 km/h 6 mph /  9.7 km/h 68 % 0 in /  0.0 mm
19:42 65.8 °F /  18.8 °C 55.4 °F /  13.0 °C 30.2 in /  1022.6 hPa North 1 mph /  1.6 km/h 6 mph /  9.7 km/h 69 % 0 in /  0.0 mm
19:47 65.5 °F /  18.6 °C 55.4 °F /  13.0 °C 30.2 in /  1022.6 hPa North 1 mph /  1.6 km/h 4 mph /  6.4 km/h 70 % 0 in /  0.0 mm
19:52 64.9 °F /  18.3 °C 55.4 °F /  13.0 °C 30.2 in /  1022.6 hPa Calm   4 mph /  6.4 km/h 71 % 0 in /  0.0 mm
19:57 64.6 °F /  18.1 °C 55.8 °F /  13.2 °C 30.2 in /  1022.9 hPa NNW 1 mph /  1.6 km/h 5 mph /  8.0 km/h 73 % 0 in /  0.0 mm
20:02 63.9 °F /  17.7 °C 55 °F /  12.8 °C 30.2 in /  1022.9 hPa NNW 2 mph /  3.2 km/h 5 mph /  8.0 km/h 73 % 0 in /  0.0 mm
20:17 62.6 °F /  17.0 °C 54.9 °F /  12.7 °C 30.2 in /  1022.9 hPa NNW 2 mph /  3.2 km/h 3 mph /  4.8 km/h 76 % 0 in /  0.0 mm
20:32 61.5 °F /  16.4 °C 54.3 °F /  12.4 °C 30.2 in /  1023.2 hPa Calm   3 mph /  4.8 km/h 77 % 0 in /  0.0 mm
20:37 61.3 °F /  16.3 °C 54.5 °F /  12.5 °C 30.2 in /  1023.2 hPa Calm   3 mph /  4.8 km/h 78 % 0 in /  0.0 mm
20:42 61 °F /  16.1 °C 54.1 °F /  12.3 °C 30.2 in /  1023.2 hPa Calm   3 mph /  4.8 km/h 78 % 0 in /  0.0 mm
20:47 60.6 °F /  15.9 °C 54.1 °F /  12.3 °C 30.2 in /  1023.2 hPa NNW 1 mph /  1.6 km/h 4 mph /  6.4 km/h 79 % 0 in /  0.0 mm
20:57 60.3 °F /  15.7 °C 54.1 °F /  12.3 °C 30.2 in /  1023.2 hPa Calm   3 mph /  4.8 km/h 80 % 0 in /  0.0 mm
21:02 60.1 °F /  15.6 °C 54 °F /  12.2 °C 30.2 in /  1023.6 hPa Calm   3 mph /  4.8 km/h 80 % 0 in /  0.0 mm
21:12 59.4 °F /  15.2 °C 53.8 °F /  12.1 °C 30.2 in /  1023.6 hPa North 1 mph /  1.6 km/h 2 mph /  3.2 km/h 82 % 0 in /  0.0 mm
21:32 59.2 °F /  15.1 °C 53.6 °F /  12.0 °C 30.2 in /  1023.6 hPa NNW 1 mph /  1.6 km/h 3 mph /  4.8 km/h 82 % 0 in /  0.0 mm
21:37 59.2 °F /  15.1 °C 53.6 °F /  12.0 °C 30.2 in /  1023.6 hPa NNW 2 mph /  3.2 km/h 4 mph /  6.4 km/h 82 % 0 in /  0.0 mm
21:47 59.2 °F /  15.1 °C 54 °F /  12.2 °C 30.2 in /  1023.6 hPa NNW 1 mph /  1.6 km/h 4 mph /  6.4 km/h 83 % 0 in /  0.0 mm
21:52 59.2 °F /  15.1 °C 54 °F /  12.2 °C 30.2 in /  1023.9 hPa NNW 2 mph /  3.2 km/h 4 mph /  6.4 km/h 83 % 0 in /  0.0 mm
21:57 58.8 °F /  14.9 °C 53.6 °F /  12.0 °C 30.2 in /  1023.9 hPa NNW 2 mph /  3.2 km/h 4 mph /  6.4 km/h 83 % 0 in /  0.0 mm
22:02 58.8 °F /  14.9 °C 54 °F /  12.2 °C 30.2 in /  1023.9 hPa WNW 2 mph /  3.2 km/h 4 mph /  6.4 km/h 84 % 0 in /  0.0 mm
22:12 58.5 °F /  14.7 °C 53.6 °F /  12.0 °C 30.2 in /  1023.9 hPa North 1 mph /  1.6 km/h 4 mph /  6.4 km/h 84 % 0 in /  0.0 mm
22:17 58.3 °F /  14.6 °C 53.8 °F /  12.1 °C 30.2 in /  1023.9 hPa NNW 2 mph /  3.2 km/h 4 mph /  6.4 km/h 85 % 0 in /  0.0 mm
22:22 58.3 °F /  14.6 °C 53.8 °F /  12.1 °C 30.2 in /  1023.9 hPa NNW 1 mph /  1.6 km/h 4 mph /  6.4 km/h 85 % 0 in /  0.0 mm
22:32 58.5 °F /  14.7 °C 54 °F /  12.2 °C 30.2 in /  1023.9 hPa NW 2 mph /  3.2 km/h 3 mph /  4.8 km/h 85 % 0 in /  0.0 mm
22:37 58.6 °F /  14.8 °C 54.1 °F /  12.3 °C 30.2 in /  1023.9 hPa North 3 mph /  4.8 km/h 4 mph /  6.4 km/h 85 % 0 in /  0.0 mm
22:42 58.6 °F /  14.8 °C 54.1 °F /  12.3 °C 30.2 in /  1023.9 hPa NNE 2 mph /  3.2 km/h 4 mph /  6.4 km/h 85 % 0 in /  0.0 mm
22:52 58.5 °F /  14.7 °C 54 °F /  12.2 °C 30.2 in /  1023.9 hPa NNE 5 mph /  8.0 km/h 5 mph /  8.0 km/h 85 % 0 in /  0.0 mm
23:02 58.5 °F /  14.7 °C 54 °F /  12.2 °C 30.2 in /  1023.9 hPa NNE 3 mph /  4.8 km/h 5 mph /  8.0 km/h 85 % 0 in /  0.0 mm
23:12 58.3 °F /  14.6 °C 53.8 °F /  12.1 °C 30.3 in /  1024.3 hPa NNE 6 mph /  9.7 km/h 7 mph /  11.3 km/h 85 % 0 in /  0.0 mm
23:17 58.3 °F /  14.6 °C 53.8 °F /  12.1 °C 30.3 in /  1024.3 hPa NNE 3 mph /  4.8 km/h 7 mph /  11.3 km/h 85 % 0 in /  0.0 mm
23:22 57.9 °F /  14.4 °C 53.8 °F /  12.1 °C 30.2 in /  1023.9 hPa Calm   7 mph /  11.3 km/h 86 % 0 in /  0.0 mm
23:32 57.4 °F /  14.1 °C 53.2 °F /  11.8 °C 30.3 in /  1024.3 hPa Calm   7 mph /  11.3 km/h 86 % 0 in /  0.0 mm
23:37 57 °F /  13.9 °C 53.2 °F /  11.8 °C 30.3 in /  1024.3 hPa Calm   2 mph /  3.2 km/h 87 % 0 in /  0.0 mm
23:42 57 °F /  13.9 °C 53.4 °F /  11.9 °C 30.3 in /  1024.3 hPa NNW 1 mph /  1.6 km/h 2 mph /  3.2 km/h 88 % 0 in /  0.0 mm
23:47 57 °F /  13.9 °C 53.4 °F /  11.9 °C 30.3 in /  1024.3 hPa NNE 1 mph /  1.6 km/h 7 mph /  11.3 km/h 88 % 0 in /  0.0 mm
23:52 57.2 °F /  14.0 °C 53.6 °F /  12.0 °C 30.3 in /  1024.3 hPa NNE 3 mph /  4.8 km/h 7 mph /  11.3 km/h 88 % 0 in /  0.0 mm
Meteo18
Compliments of Weather Underground - 4 mb

Script developed by  Jim McMurry - jmcmurry@mwt.net Adapted for the template by  Wim van der Kuil - Leuven-Template.eu

You find our weather info also at:

European Weather Network

Weather Underground

Equipment we use:

Weather-station
Davis Vue

Weather-program
Meteohub

Weather-server
Raspberry PI 2 B+

Provider
1 and 1

Davis Vue

Meteohub

Raspberry PI 2 B+

1 and 1